createdAt,value
2023-01-19T00:02:47.488Z,100019.19
2023-01-19T00:05:15.396Z,100025.56
2023-01-19T00:07:43.141Z,100030.38
2023-01-19T00:10:11.497Z,100029.56
2023-01-19T00:12:39.327Z,100021.56
2023-01-19T00:15:08.616Z,100029.56
2023-01-19T00:17:36.516Z,100034.34
2023-01-19T00:20:06.291Z,100033.53
2023-01-19T00:22:34.204Z,100039.13
2023-01-19T00:25:01.847Z,100041.94
2023-01-19T00:27:30.485Z,100048.72
2023-01-19T00:29:58.104Z,100043.91
2023-01-19T00:32:25.796Z,100047.06
2023-01-19T00:34:53.380Z,100047.06
2023-01-19T00:37:22.448Z,100047.06
2023-01-19T00:39:50.725Z,100052.66
2023-01-19T00:42:38.043Z,100058.25
2023-01-19T00:45:06.540Z,100059.78
2023-01-19T00:47:34.442Z,100062.59
2023-01-19T00:50:02.077Z,100054.59
2023-01-19T00:52:31.081Z,100061.38
2023-01-19T00:54:58.655Z,100064.97
2023-01-19T00:57:27.073Z,100062.16
2023-01-19T00:59:54.677Z,100066.97
2023-01-19T02:45:11.100Z,100075.97
2023-01-19T03:45:15.884Z,100089.06
2023-01-19T05:45:14.277Z,100117.00
2023-01-19T06:49:11.898Z,100160.03
2023-01-19T06:51:39.853Z,100155.25
2023-01-19T06:54:07.695Z,100161.66
2023-01-19T06:56:35.250Z,100164.81
2023-01-19T06:59:03.011Z,100164.81
2023-01-19T07:01:30.644Z,100158.03
2023-01-19T07:03:58.351Z,100167.63
2023-01-19T07:06:27.298Z,100166.81
2023-01-19T07:08:55.090Z,100164.81
2023-01-19T07:11:30.685Z,100167.63
2023-01-19T07:14:00.361Z,100172.81
2023-01-19T07:16:28.193Z,100172.00
2023-01-19T07:18:55.817Z,100174.38
2023-01-19T07:21:24.012Z,100183.19
2023-01-19T07:23:53.553Z,100167.22
2023-01-19T07:26:21.941Z,100170.41
2023-01-19T07:28:49.758Z,100181.56
2023-01-19T07:31:17.822Z,100188.78
2023-01-19T07:33:45.618Z,100179.09
2023-01-19T07:36:13.587Z,100189.59
2023-01-19T07:38:41.272Z,100190.38
2023-01-19T07:41:10.680Z,100185.97
2023-01-19T07:43:38.734Z,100198.34
2023-01-19T07:46:07.015Z,100198.34
2023-01-19T07:48:34.757Z,100191.16
2023-01-19T07:51:05.194Z,100198.34
2023-01-19T07:53:32.885Z,100199.94
2023-01-19T07:56:00.666Z,100204.34
2023-01-19T07:58:29.648Z,100202.38
2023-01-19T08:00:57.336Z,100201.56
2023-01-19T08:03:25.011Z,100206.00
2023-01-19T08:05:52.977Z,100200.75
2023-01-19T08:08:20.798Z,100213.56
2023-01-19T08:10:50.465Z,100207.97
2023-01-19T08:13:18.531Z,100207.16
2023-01-19T08:15:48.743Z,100208.78
2023-01-19T08:18:16.528Z,100207.97
2023-01-19T08:20:44.210Z,100216.38
2023-01-19T08:23:11.841Z,100213.91
2023-01-19T08:25:40.858Z,100218.69
2023-01-19T08:28:08.685Z,100217.91
2023-01-19T08:30:36.554Z,100229.88
2023-01-19T08:33:08.202Z,100227.88
2023-01-19T08:35:38.379Z,100230.69
2023-01-19T08:38:06.213Z,100232.66
2023-01-19T08:40:34.778Z,100239.06
2023-01-19T08:43:04.762Z,100228.69
2023-01-19T08:45:32.325Z,100237.06
2023-01-19T08:48:00.042Z,100227.88
2023-01-19T08:50:29.084Z,100223.47
2023-01-19T08:52:56.903Z,100231.06
2023-01-19T08:55:24.926Z,100231.88
2023-01-19T08:57:53.417Z,100231.88
2023-01-19T09:00:21.334Z,100239.06
2023-01-19T09:02:49.007Z,100239.06
2023-01-19T09:05:16.756Z,100239.88
2023-01-19T09:07:46.475Z,100239.06
2023-01-19T09:10:14.121Z,100242.66
2023-01-19T09:12:41.811Z,100239.88
2023-01-19T09:15:10.863Z,100242.31
2023-01-19T09:17:38.663Z,100251.84
2023-01-19T09:20:06.819Z,100246.25
2023-01-19T09:22:34.667Z,100248.69
2023-01-19T09:25:03.731Z,100239.94
2023-01-19T09:27:31.780Z,100239.94
2023-01-19T09:29:59.393Z,100245.53
2023-01-19T09:32:26.947Z,100245.53
2023-01-19T09:34:56.488Z,100243.91
2023-01-19T09:37:24.282Z,100239.94
2023-01-19T09:39:51.885Z,100237.53
2023-01-19T09:42:23.056Z,100236.34
2023-01-19T09:44:50.853Z,100240.75
2023-01-19T09:47:18.730Z,100241.56
2023-01-19T09:49:46.879Z,100243.16
2023-01-19T09:52:14.515Z,100248.75
2023-01-19T09:54:44.303Z,100238.75
2023-01-19T09:57:12.147Z,100245.53
2023-01-19T09:59:43.756Z,100239.94
2023-01-19T10:02:18.101Z,100244.31
2023-01-19T10:04:46.446Z,100242.31
2023-01-19T10:07:15.863Z,100243.13
2023-01-19T10:09:58.315Z,100240.75
2023-01-19T10:12:30.376Z,100240.75
2023-01-19T10:15:01.531Z,100228.03
2023-01-19T10:17:32.618Z,100232.44
2023-01-19T10:20:00.232Z,100230.84
2023-01-19T10:22:28.405Z,100224.06
2023-01-19T10:24:56.339Z,100230.44
2023-01-19T10:27:25.436Z,100226.47
2023-01-19T10:29:53.237Z,100229.66
2023-01-19T10:32:23.288Z,100229.19
2023-01-19T10:34:51.164Z,100231.97
2023-01-19T10:37:20.037Z,100226.84
2023-01-19T10:39:47.988Z,100231.25
2023-01-19T10:42:16.879Z,100228.09
2023-01-19T10:44:45.240Z,100228.47
2023-01-19T10:47:15.404Z,100224.88
2023-01-19T10:49:44.578Z,100218.47
2023-01-19T10:52:20.741Z,100212.88
2023-01-19T10:54:48.983Z,100218.00
2023-01-19T10:57:24.379Z,100211.28
2023-01-19T10:59:52.042Z,100212.00
2023-01-19T11:02:20.631Z,100208.03
2023-01-19T11:04:50.402Z,100205.69
2023-01-19T11:07:19.909Z,100201.72
2023-01-19T11:09:47.569Z,100208.91
2023-01-19T11:12:21.543Z,100200.91
2023-01-19T11:14:49.429Z,100191.25
2023-01-19T11:17:21.019Z,100203.25
2023-01-19T11:19:57.551Z,100206.50
2023-01-19T11:22:26.909Z,100202.13
2023-01-19T11:24:54.906Z,100200.13
2023-01-19T11:27:23.855Z,100199.34
2023-01-19T11:29:51.631Z,100192.56
2023-01-19T11:32:22.026Z,100194.56
2023-01-19T11:34:49.794Z,100188.97
2023-01-19T11:37:28.853Z,100190.56
2023-01-19T11:39:57.056Z,100178.59
2023-01-19T11:42:24.989Z,100183.81
2023-01-19T11:44:56.874Z,100173.00
2023-01-19T11:47:24.959Z,100171.00
2023-01-19T11:49:53.846Z,100171.81
2023-01-19T11:52:23.062Z,100163.44
2023-01-19T11:54:54.932Z,100173.00
2023-01-19T11:57:22.559Z,100171.00
2023-01-19T11:59:52.898Z,100168.22
2023-01-19T12:02:24.017Z,100166.22
2023-01-19T12:04:51.670Z,100169.03
2023-01-19T12:07:20.423Z,100173.00
2023-01-19T12:09:48.818Z,100173.00
2023-01-19T12:12:21.792Z,100179.41
2023-01-19T12:14:51.545Z,100174.63
2023-01-19T12:17:20.905Z,100183.81
2023-01-19T12:19:54.836Z,100188.59
2023-01-19T12:22:24.158Z,100183.81
2023-01-19T12:24:54.218Z,100185.78
2023-01-19T12:27:25.343Z,100182.56
2023-01-19T12:29:53.118Z,100187.44
2023-01-19T12:32:21.157Z,100179.03
2023-01-19T12:34:49.044Z,100186.97
2023-01-19T12:37:35.907Z,100184.19
2023-01-19T12:40:05.568Z,100180.19
2023-01-19T12:42:34.630Z,100183.00
2023-01-19T12:45:06.432Z,100189.03
2023-01-19T12:47:34.016Z,100193.81
2023-01-19T12:50:06.943Z,100200.22
2023-01-19T12:52:35.131Z,100191.44
2023-01-19T12:55:03.997Z,100192.25
2023-01-19T12:57:33.045Z,100192.63
2023-01-19T13:00:03.081Z,100189.03
2023-01-19T13:02:52.233Z,100202.63
2023-01-19T13:05:23.794Z,100193.81
2023-01-19T13:08:09.941Z,100205.81
2023-01-19T13:10:56.960Z,100212.19
2023-01-19T13:13:24.887Z,100208.13
2023-01-19T13:15:55.765Z,100205.81
2023-01-19T13:18:24.748Z,100209.78
2023-01-19T13:20:53.405Z,100212.13
2023-01-19T13:23:22.450Z,100216.09
2023-01-19T13:26:00.149Z,100219.31
2023-01-19T13:28:29.997Z,100214.91
2023-01-19T13:30:59.354Z,100216.09
2023-01-19T13:33:27.960Z,100214.09
2023-01-19T13:35:56.931Z,100213.72
2023-01-19T13:38:24.899Z,100223.69
2023-01-19T13:40:52.740Z,100220.88
2023-01-19T13:43:21.724Z,100230.06
2023-01-19T13:45:51.749Z,100234.47
2023-01-19T13:48:23.277Z,100228.03
2023-01-19T13:50:58.370Z,100231.69
2023-01-19T13:53:26.166Z,100234.47
2023-01-19T13:56:12.728Z,100229.66
2023-01-19T13:58:40.400Z,100232.88
2023-01-19T14:01:19.335Z,100238.44
2023-01-19T14:03:52.209Z,100233.28
2023-01-19T14:06:31.434Z,100240.13
2023-01-19T14:09:08.979Z,100240.94
2023-01-19T14:11:36.608Z,100244.53
2023-01-19T14:14:04.211Z,100248.13
2023-01-19T14:16:31.969Z,100252.91
2023-01-19T14:19:02.237Z,100255.72
2023-01-19T14:21:38.085Z,100252.91
2023-01-19T14:24:08.924Z,100257.72
2023-01-19T14:26:41.723Z,100263.28
2023-01-19T14:29:19.988Z,100262.50
2023-01-19T14:31:48.438Z,100261.69
2023-01-19T14:34:36.312Z,100267.66
2023-01-19T14:37:04.268Z,100268.81
2023-01-19T14:39:32.272Z,100268.00
2023-01-19T14:42:00.174Z,100262.41
2023-01-19T14:44:29.679Z,100267.19
2023-01-19T14:46:59.408Z,100264.78
2023-01-19T14:49:30.230Z,100267.56
2023-01-19T14:51:59.460Z,100275.53
2023-01-19T14:54:29.715Z,100274.34
2023-01-19T14:56:57.715Z,100278.31
2023-01-19T14:59:25.514Z,100277.50
2023-01-19T15:01:53.387Z,100269.50
2023-01-19T15:04:21.094Z,100278.69
2023-01-19T15:06:48.678Z,100273.47
2023-01-19T15:09:17.719Z,100281.47
2023-01-19T15:11:45.999Z,100271.91
2023-01-19T15:14:14.325Z,100278.31
2023-01-19T15:16:41.983Z,100286.25
2023-01-19T15:19:11.019Z,100285.53
2023-01-19T15:21:41.952Z,100279.94
2023-01-19T15:24:10.800Z,100287.13
2023-01-19T15:26:40.379Z,100287.13
2023-01-19T15:29:13.800Z,100289.94
2023-01-19T15:31:42.113Z,100277.56
2023-01-19T15:34:10.835Z,100291.13
2023-01-19T15:36:38.480Z,100283.53
2023-01-19T15:39:06.087Z,100281.94
2023-01-19T15:41:33.688Z,100292.72
2023-01-19T15:44:03.525Z,100292.72
2023-01-19T15:46:31.092Z,100291.53
2023-01-19T15:48:58.937Z,100292.72
2023-01-19T15:51:27.229Z,100297.50
2023-01-19T15:53:54.946Z,100292.72
2023-01-19T15:56:23.302Z,100292.72
2023-01-19T15:58:50.944Z,100294.34
2023-01-19T16:01:21.261Z,100298.31
2023-01-19T16:03:48.929Z,100303.91
2023-01-19T16:06:17.823Z,100301.53
2023-01-19T16:08:45.675Z,100312.72
2023-01-19T16:11:14.644Z,100291.53
2023-01-19T16:13:44.834Z,100298.75
2023-01-19T16:16:13.765Z,100300.72
2023-01-19T16:18:43.475Z,100294.34
2023-01-19T16:21:11.328Z,100305.50
2023-01-19T16:23:38.925Z,100307.94
2023-01-19T16:26:07.808Z,100313.50
2023-01-19T16:28:35.501Z,100309.91
2023-01-19T16:31:03.104Z,100308.72
2023-01-19T16:33:30.762Z,100310.38
2023-01-19T16:36:00.095Z,100312.28
2023-01-19T16:38:27.814Z,100309.50
2023-01-19T16:40:55.424Z,100314.28
2023-01-19T16:43:23.051Z,100312.72
2023-01-19T16:45:57.749Z,100321.91
2023-01-19T16:48:25.598Z,100320.38
2023-01-19T16:51:00.605Z,100320.00
2023-01-19T16:53:28.710Z,100324.78
2023-01-19T16:55:56.687Z,100320.78
2023-01-19T16:58:24.385Z,100328.75
2023-01-19T17:00:52.125Z,100323.16
2023-01-19T17:03:19.820Z,100317.56
2023-01-19T17:05:50.868Z,100330.38
2023-01-19T17:08:20.387Z,100330.38
2023-01-19T17:10:47.955Z,100321.97
2023-01-19T17:13:16.059Z,100327.56
2023-01-19T17:15:44.955Z,100331.97
2023-01-19T17:18:13.411Z,100327.19
2023-01-19T17:20:42.058Z,100333.59
2023-01-19T17:23:09.965Z,100331.97
2023-01-19T17:25:39.462Z,100339.16
2023-01-19T17:28:07.129Z,100335.94
2023-01-19T17:30:34.923Z,100329.56
2023-01-19T17:33:02.711Z,100332.72
2023-01-19T17:35:30.440Z,100326.34
2023-01-19T17:37:58.389Z,100331.09
2023-01-19T17:40:27.046Z,100331.91
2023-01-19T17:42:56.270Z,100333.88
2023-01-19T17:45:23.938Z,100325.50
2023-01-19T17:47:51.664Z,100327.13
2023-01-19T17:50:19.607Z,100329.13
2023-01-19T17:52:47.422Z,100338.66
2023-01-19T17:55:15.821Z,100330.28
2023-01-19T17:57:43.480Z,100346.25
2023-01-19T18:00:13.694Z,100343.91
2023-01-19T18:02:42.206Z,100341.09
2023-01-19T18:05:12.586Z,100346.31
2023-01-19T18:07:40.400Z,100345.50
2023-01-19T18:10:08.664Z,100348.75
2023-01-19T18:12:36.375Z,100355.94
2023-01-19T18:15:04.258Z,100357.13
2023-01-19T18:17:33.226Z,100353.53
2023-01-19T18:20:00.884Z,100360.72
2023-01-19T18:22:28.703Z,100365.50
2023-01-19T18:24:56.331Z,100368.28
2023-01-19T18:27:23.954Z,100371.09
2023-01-19T18:29:51.684Z,100376.69
2023-01-19T18:32:19.313Z,100376.69
2023-01-19T18:34:48.348Z,100375.06
2023-01-19T18:37:15.951Z,100372.28
2023-01-19T18:39:43.809Z,100376.25
2023-01-19T18:42:11.386Z,100376.25
2023-01-19T18:44:38.997Z,100387.06
2023-01-19T18:47:06.635Z,100379.06
2023-01-19T18:49:34.286Z,100390.22
2023-01-19T18:52:04.103Z,100390.22
2023-01-19T18:54:31.947Z,100390.22
2023-01-19T18:56:59.924Z,100405.38
2023-01-19T18:59:27.716Z,100394.19
2023-01-19T19:01:55.325Z,100399.78
2023-01-19T19:04:22.992Z,100401.41
2023-01-19T19:06:50.603Z,100400.59
2023-01-19T19:09:19.583Z,100413.38
2023-01-19T19:11:47.267Z,100407.78
2023-01-19T19:14:15.178Z,100418.59
2023-01-19T19:16:42.902Z,100415.81
2023-01-19T19:19:11.906Z,100420.59
2023-01-19T19:21:39.485Z,100420.22
2023-01-19T19:24:07.697Z,100421.41
2023-01-19T19:26:36.704Z,100423.00
2023-01-19T19:29:04.411Z,100424.19
2023-01-19T19:31:32.348Z,100434.19
2023-01-19T19:34:00.265Z,100436.97
2023-01-19T19:36:28.129Z,100445.38
2023-01-19T19:38:55.795Z,100443.75
2023-01-19T19:41:24.080Z,100442.56
2023-01-19T19:43:53.039Z,100450.94
2023-01-19T19:46:20.967Z,100447.00
2023-01-19T19:48:48.677Z,100454.22
2023-01-19T19:51:19.262Z,100452.59
2023-01-19T19:53:49.040Z,100458.19
2023-01-19T19:56:19.778Z,100456.53
2023-01-19T19:58:47.530Z,100474.94
2023-01-19T20:01:17.069Z,100472.97
2023-01-19T20:03:44.701Z,100475.75
2023-01-19T20:06:13.160Z,100478.91
2023-01-19T20:08:40.837Z,100466.09
2023-01-19T20:11:08.927Z,100470.50
2023-01-19T20:13:36.824Z,100473.31
2023-01-19T20:16:04.565Z,100473.31
2023-01-19T20:18:33.883Z,100476.09
2023-01-19T20:21:01.887Z,100478.09
2023-01-19T20:23:29.571Z,100483.34
2023-01-19T20:25:57.185Z,100491.72
2023-01-19T20:28:24.856Z,100498.13
2023-01-19T20:30:54.638Z,100498.13
2023-01-19T20:33:22.310Z,100492.53
2023-01-19T20:35:51.972Z,100500.09
2023-01-19T20:38:19.573Z,100502.91
2023-01-19T20:40:47.199Z,100504.84
2023-01-19T20:43:14.862Z,100518.03
2023-01-19T20:45:42.488Z,100514.06
2023-01-19T20:48:10.075Z,100519.66
2023-01-19T20:50:38.020Z,100522.47
2023-01-19T20:53:07.029Z,100514.06
2023-01-19T20:55:34.619Z,100525.25
2023-01-19T20:58:02.186Z,100523.28
2023-01-19T21:00:29.958Z,100525.25
2023-01-19T21:02:57.569Z,100528.06
2023-01-19T21:05:25.214Z,100536.44
2023-01-19T21:07:52.819Z,100540.84
2023-01-19T21:10:22.142Z,100543.63
2023-01-19T21:12:49.705Z,100537.88
2023-01-19T21:15:18.056Z,100549.22
2023-01-19T21:17:46.250Z,100553.22
2023-01-19T21:20:14.025Z,100554.81
2023-01-19T21:22:41.575Z,100558.78
2023-01-19T21:25:09.580Z,100557.63
2023-01-19T21:27:38.500Z,100566.00
2023-01-19T21:30:06.561Z,100553.22
2023-01-19T21:32:34.165Z,100565.19
2023-01-19T21:35:01.801Z,100564.38
2023-01-19T21:37:30.464Z,100569.97
2023-01-19T21:39:58.514Z,100571.94
2023-01-19T21:42:26.744Z,100583.94
2023-01-19T21:44:55.790Z,100585.09
2023-01-19T21:47:23.819Z,100586.75
2023-01-19T21:49:51.369Z,100591.50
2023-01-19T21:52:19.221Z,100594.28
2023-01-19T21:54:46.876Z,100596.28
2023-01-19T21:57:15.382Z,100601.88
2023-01-19T21:59:43.008Z,100603.50
2023-01-19T22:02:12.785Z,100609.09
2023-01-19T22:04:40.672Z,100611.91
2023-01-19T22:07:08.753Z,100616.31
2023-01-19T22:09:36.538Z,100618.63
2023-01-19T22:12:04.317Z,100620.28
2023-01-19T22:14:31.940Z,100618.63
2023-01-19T22:16:59.640Z,100622.25
2023-01-19T22:19:28.658Z,100625.03
2023-01-19T22:21:56.260Z,100633.06
2023-01-19T22:24:23.962Z,100641.00
2023-01-19T22:26:51.547Z,100635.41
2023-01-19T22:29:19.263Z,100633.41
2023-01-19T22:31:47.073Z,100646.59
2023-01-19T22:34:17.074Z,100646.59
2023-01-19T22:36:46.058Z,100653.81
2023-01-19T22:39:13.726Z,100659.41
2023-01-19T22:41:42.030Z,100652.16
2023-01-19T22:44:11.267Z,100657.75
2023-01-19T22:46:38.903Z,100668.94
2023-01-19T22:49:07.472Z,100668.94
2023-01-19T22:51:35.230Z,100673.72
2023-01-19T22:54:04.501Z,100663.34
2023-01-19T22:56:32.598Z,100665.00
2023-01-19T22:59:00.682Z,100667.78
2023-01-19T23:01:28.935Z,100659.41
2023-01-19T23:03:56.662Z,100668.22
2023-01-19T23:06:24.815Z,100668.59
2023-01-19T23:08:52.550Z,100668.22
2023-01-19T23:11:22.004Z,100666.63
2023-01-19T23:13:49.713Z,100678.59
2023-01-19T23:16:17.727Z,100672.19
2023-01-19T23:18:45.451Z,100672.19
2023-01-19T23:21:13.533Z,100679.41
2023-01-19T23:23:41.207Z,100685.00
2023-01-19T23:26:09.361Z,100683.38
2023-01-19T23:28:39.201Z,100690.59
2023-01-19T23:31:17.570Z,100691.78
2023-01-19T23:33:45.340Z,100690.59
2023-01-19T23:36:13.004Z,100690.59
2023-01-19T23:38:40.642Z,100698.97
2023-01-19T23:41:08.302Z,100695.38
2023-01-19T23:43:35.955Z,100694.56
